CHIP04 EGXC-EGXC

Flight info

Callsign CHIP04
Flight time 0h 32m
Altitude 3000
Route OPR
Aircraft CHIP/L-VGD/C

Departure

Time 2026-04-19 14:06
Airport RAF Coningsby (EGXC)

Arrival

Time 2026-04-19 14:38
Airport RAF Coningsby (EGXC)
Time Latitude Longitude Altitude Speed Heading
2026-04-19 13:58 53.09586 -0.18093 24 ft 0 kts 293°
2026-04-19 14:01 53.09587 -0.18106 24 ft 4 kts 243°
2026-04-19 14:01 53.09538 -0.18139 26 ft 9 kts 219°
2026-04-19 14:01 53.09488 -0.18203 25 ft 10 kts 204°
2026-04-19 14:01 53.09397 -0.18272 25 ft 16 kts 201°
2026-04-19 14:02 53.09299 -0.18320 24 ft 14 kts 175°
2026-04-19 14:02 53.09253 -0.18229 23 ft 14 kts 118°
2026-04-19 14:02 53.09231 -0.18156 23 ft 16 kts 116°
2026-04-19 14:03 53.09233 -0.17946 22 ft 20 kts 69°
2026-04-19 14:03 53.09271 -0.17760 23 ft 15 kts 69°
2026-04-19 14:03 53.09308 -0.17585 24 ft 17 kts 70°
2026-04-19 14:03 53.09344 -0.17389 25 ft 18 kts 72°
2026-04-19 14:04 53.09385 -0.17181 25 ft 19 kts 72°
2026-04-19 14:04 53.09428 -0.16974 28 ft 19 kts 73°
2026-04-19 14:04 53.09467 -0.16762 27 ft 20 kts 78°
2026-04-19 14:04 53.09509 -0.16555 27 ft 18 kts 71°
2026-04-19 14:05 53.09547 -0.16363 28 ft 17 kts 72°
2026-04-19 14:05 53.09531 -0.16261 27 ft 10 kts 167°
2026-04-19 14:05 53.09464 -0.16228 27 ft 10 kts 157°
2026-04-19 14:05 53.09389 -0.16244 29 ft 20 kts 261°
2026-04-19 14:06 53.09278 -0.16778 106 ft 69 kts 261°
2026-04-19 14:06 53.09128 -0.17631 446 ft 83 kts 263°
2026-04-19 14:06 53.08819 -0.18499 734 ft 100 kts 214°
2026-04-19 14:06 53.08086 -0.18691 1151 ft 107 kts 182°
2026-04-19 14:07 53.07355 -0.18707 1638 ft 101 kts 181°
2026-04-19 14:07 53.06688 -0.18738 2156 ft 96 kts 185°
2026-04-19 14:07 53.06007 -0.18802 2472 ft 106 kts 184°
2026-04-19 14:07 53.05218 -0.18870 2581 ft 114 kts 185°
2026-04-19 14:08 53.04414 -0.18951 2593 ft 120 kts 186°
2026-04-19 14:08 53.03587 -0.19046 2692 ft 117 kts 180°
2026-04-19 14:08 53.02763 -0.19013 2746 ft 118 kts 180°
2026-04-19 14:08 53.01997 -0.18992 3250 ft 105 kts 182°
2026-04-19 14:09 53.01236 -0.19064 3517 ft 115 kts 191°
2026-04-19 14:09 53.00464 -0.19349 3914 ft 110 kts 196°
2026-04-19 14:09 52.99719 -0.19557 4274 ft 112 kts 192°
2026-04-19 14:09 52.98925 -0.19728 4570 ft 114 kts 191°
2026-04-19 14:10 52.98161 -0.19950 4921 ft 112 kts 190°
2026-04-19 14:10 52.97362 -0.19612 4967 ft 124 kts 148°
2026-04-19 14:10 52.97035 -0.18429 4959 ft 120 kts 75°
2026-04-19 14:10 52.97527 -0.17461 4988 ft 106 kts
2026-04-19 14:11 52.98219 -0.17567 5032 ft 101 kts
2026-04-19 14:11 52.98668 -0.16745 5130 ft 109 kts 76°
2026-04-19 14:11 52.98440 -0.15494 5128 ft 123 kts 131°
2026-04-19 14:11 52.97652 -0.15002 5145 ft 122 kts 179°
2026-04-19 14:12 52.96862 -0.15009 5255 ft 98 kts 189°
2026-04-19 14:12 52.96320 -0.15110 5344 ft 62 kts 195°
2026-04-19 14:12 52.95929 -0.15026 4384 ft 125 kts 160°
2026-04-19 14:12 52.94975 -0.14538 4419 ft 122 kts 168°
2026-04-19 14:13 52.94276 -0.14328 5091 ft 88 kts 189°
2026-04-19 14:13 52.93887 -0.14979 5375 ft 86 kts 269°
2026-04-19 14:13 52.93856 -0.16142 5125 ft 129 kts 274°
2026-04-19 14:13 52.93818 -0.16557 5140 ft 112 kts 276°
2026-04-19 14:14 52.93867 -0.18016 5323 ft 119 kts 276°
2026-04-19 14:14 52.93712 -0.18958 5224 ft 114 kts 269°
2026-04-19 14:14 52.93817 -0.19768 5604 ft 33 kts 328°
2026-04-19 14:14 52.93714 -0.21098 5129 ft 110 kts 268°
2026-04-19 14:15 52.93627 -0.22286 5356 ft 106 kts 269°
2026-04-19 14:15 52.93649 -0.23438 5372 ft 102 kts 328°
2026-04-19 14:15 52.93683 -0.22740 5474 ft 113 kts 179°
2026-04-19 14:15 52.93375 -0.23656 5442 ft 106 kts 278°
2026-04-19 14:16 52.93009 -0.24291 5504 ft 117 kts 128°
2026-04-19 14:16 52.93278 -0.24122 5486 ft 104 kts 266°
2026-04-19 14:16 52.93112 -0.25319 5507 ft 107 kts 258°
2026-04-19 14:16 52.92786 -0.26402 5608 ft 111 kts 219°
2026-04-19 14:17 52.92005 -0.26426 5658 ft 125 kts 158°
2026-04-19 14:17 52.91344 -0.25506 5614 ft 123 kts 105°
2026-04-19 14:17 52.91387 -0.24262 6018 ft 97 kts 80°
2026-04-19 14:17 52.91431 -0.23374 6314 ft 48 kts 58°
2026-04-19 14:18 52.91368 -0.23143 4869 ft 92 kts 225°
2026-04-19 14:18 52.90691 -0.23993 4755 ft 122 kts 198°
2026-04-19 14:18 52.90430 -0.23135 5067 ft 100 kts 25°
2026-04-19 14:18 52.91103 -0.22913 5236 ft 105 kts 10°
2026-04-19 14:19 52.91688 -0.22659 5723 ft 82 kts 10°
2026-04-19 14:19 52.92153 -0.22419 5810 ft 56 kts 13°
2026-04-19 14:19 52.92353 -0.22163 5460 ft 80 kts 165°
2026-04-19 14:19 52.91822 -0.22403 4473 ft 113 kts 213°
2026-04-19 14:20 52.91165 -0.23137 4619 ft 105 kts 249°
2026-04-19 14:20 52.91393 -0.24143 4808 ft 100 kts 348°
2026-04-19 14:20 52.91936 -0.23822 4939 ft 71 kts 20°
2026-04-19 14:20 52.92382 -0.23483 4754 ft 71 kts 22°
2026-04-19 14:21 52.92836 -0.23135 4487 ft 75 kts 24°
2026-04-19 14:21 52.93305 -0.22749 4255 ft 74 kts 13°
2026-04-19 14:21 52.93770 -0.22505 4132 ft 67 kts 12°
2026-04-19 14:21 52.94234 -0.22335 3926 ft 67 kts 346°
2026-04-19 14:22 52.94417 -0.23051 3714 ft 77 kts 262°
2026-04-19 14:22 52.94065 -0.23726 3548 ft 83 kts 217°
2026-04-19 14:22 52.93558 -0.24134 3334 ft 84 kts 217°
2026-04-19 14:22 52.93048 -0.24630 3101 ft 89 kts 211°
2026-04-19 14:23 52.92736 -0.25348 2880 ft 89 kts 275°
2026-04-19 14:23 52.93021 -0.26300 2741 ft 79 kts 335°
2026-04-19 14:23 52.93503 -0.26120 2577 ft 73 kts 25°
2026-04-19 14:23 52.93900 -0.25729 2437 ft 68 kts 27°
2026-04-19 14:24 52.94340 -0.25358 2219 ft 72 kts 19°
2026-04-19 14:24 52.94786 -0.25030 2057 ft 70 kts
2026-04-19 14:24 52.95144 -0.25618 1847 ft 68 kts 299°
2026-04-19 14:24 52.95285 -0.26368 1689 ft 75 kts 269°
2026-04-19 14:25 52.94902 -0.27045 1497 ft 83 kts 220°
2026-04-19 14:25 52.94398 -0.27412 1349 ft 87 kts 170°
2026-04-19 14:25 52.93945 -0.26866 1154 ft 78 kts 98°
2026-04-19 14:25 52.94175 -0.26141 852 ft 73 kts 28°
2026-04-19 14:26 52.94623 -0.25772 532 ft 68 kts 20°
2026-04-19 14:26 52.95047 -0.25452 335 ft 63 kts 21°
2026-04-19 14:26 52.95449 -0.25137 750 ft 66 kts 20°
2026-04-19 14:26 52.95857 -0.24810 1252 ft 61 kts 21°
2026-04-19 14:27 52.96236 -0.24464 1712 ft 67 kts 25°
2026-04-19 14:27 52.96653 -0.24052 2147 ft 68 kts 26°
2026-04-19 14:27 52.97008 -0.23550 2514 ft 79 kts 64°
2026-04-19 14:27 52.96798 -0.22639 2866 ft 95 kts 144°
2026-04-19 14:28 52.96182 -0.22935 2984 ft 90 kts 223°
2026-04-19 14:28 52.96022 -0.23775 3218 ft 69 kts 268°
2026-04-19 14:28 52.95942 -0.24561 3554 ft 70 kts 279°
2026-04-19 14:28 52.96323 -0.24970 3811 ft 84 kts 13°
2026-04-19 14:29 52.96847 -0.24398 4006 ft 99 kts 31°
2026-04-19 14:29 52.97408 -0.23696 4093 ft 105 kts 33°
2026-04-19 14:29 52.97973 -0.22955 4241 ft 101 kts 35°
2026-04-19 14:29 52.98511 -0.22185 4372 ft 104 kts 38°
2026-04-19 14:30 52.99127 -0.21585 4398 ft 104 kts 11°
2026-04-19 14:30 52.99820 -0.21237 4519 ft 101 kts 15°
2026-04-19 14:30 53.00459 -0.20807 4690 ft 100 kts 20°
2026-04-19 14:30 53.01132 -0.20354 4676 ft 109 kts 15°
2026-04-19 14:31 53.01811 -0.19951 4843 ft 99 kts 16°
2026-04-19 14:31 53.02456 -0.19506 4937 ft 103 kts 20°
2026-04-19 14:31 53.03103 -0.18989 5004 ft 104 kts 21°
2026-04-19 14:31 53.03737 -0.18424 5133 ft 103 kts 22°
2026-04-19 14:32 53.04397 -0.17942 5188 ft 106 kts 16°
2026-04-19 14:32 53.05061 -0.17563 5012 ft 94 kts 10°
2026-04-19 14:32 53.05631 -0.17391 4872 ft 75 kts
2026-04-19 14:32 53.06113 -0.17257 4719 ft 71 kts
2026-04-19 14:33 53.06611 -0.17214 4560 ft 69 kts 355°
2026-04-19 14:33 53.07094 -0.17243 4389 ft 72 kts 351°
2026-04-19 14:33 53.07569 -0.17379 4278 ft 68 kts 343°
2026-04-19 14:33 53.08028 -0.17616 4111 ft 69 kts 342°
2026-04-19 14:34 53.08498 -0.17745 3934 ft 70 kts 355°
2026-04-19 14:34 53.08975 -0.17736 3789 ft 67 kts 355°
2026-04-19 14:34 53.09437 -0.17591 3614 ft 72 kts 27°
2026-04-19 14:35 53.09411 -0.16029 3305 ft 90 kts 145°
2026-04-19 14:35 53.08826 -0.16017 3100 ft 87 kts 227°
2026-04-19 14:35 53.08513 -0.16779 2940 ft 80 kts 245°
2026-04-19 14:35 53.08388 -0.17636 2740 ft 76 kts 288°
2026-04-19 14:36 53.08654 -0.18292 2608 ft 66 kts 328°
2026-04-19 14:36 53.09065 -0.18605 2460 ft 66 kts 351°
2026-04-19 14:36 53.09538 -0.18640 2217 ft 71 kts
2026-04-19 14:36 53.09868 -0.17948 1831 ft 86 kts 60°
2026-04-19 14:37 53.10041 -0.17071 1692 ft 76 kts 66°
2026-04-19 14:37 53.10186 -0.16288 1499 ft 69 kts 66°
2026-04-19 14:37 53.10288 -0.15498 1248 ft 70 kts 85°
2026-04-19 14:37 53.10092 -0.14733 898 ft 82 kts 140°
2026-04-19 14:38 53.09617 -0.14950 386 ft 78 kts 261°
2026-04-19 14:38 53.09476 -0.15796 29 ft 65 kts 262°
2026-04-19 14:38 53.09373 -0.16287 29 ft 27 kts 260°
2026-04-19 14:38 53.09297 -0.16714 67 ft 59 kts 263°
2026-04-19 14:39 53.09184 -0.17469 291 ft 76 kts 268°
2026-04-19 14:39 53.09017 -0.18426 564 ft 91 kts 281°
2026-04-19 14:39 53.09495 -0.18968 602 ft 96 kts 13°
2026-04-19 14:39 53.09918 -0.18006 527 ft 111 kts 63°
2026-04-19 14:40 53.10141 -0.16841 468 ft 102 kts 72°
2026-04-19 14:40 53.10231 -0.15731 414 ft 88 kts 88°
2026-04-19 14:40 53.09853 -0.15063 244 ft 82 kts 182°
2026-04-19 14:40 53.09515 -0.15591 69 ft 64 kts 262°
2026-04-19 14:41 53.09417 -0.16125 30 ft 30 kts 252°
2026-04-19 14:41 53.09318 -0.16630 92 ft 65 kts 259°
2026-04-19 14:41 53.09149 -0.17533 354 ft 91 kts 264°
2026-04-19 14:41 53.09103 -0.18584 585 ft 95 kts 306°
2026-04-19 14:42 53.09655 -0.18514 569 ft 103 kts 55°
2026-04-19 14:42 53.09918 -0.17429 561 ft 98 kts 63°
2026-04-19 14:42 53.10201 -0.16441 537 ft 90 kts 64°
2026-04-19 14:42 53.10140 -0.15502 435 ft 87 kts 132°
2026-04-19 14:43 53.09613 -0.15386 216 ft 73 kts 229°
2026-04-19 14:43 53.09429 -0.16044 31 ft 51 kts 256°
2026-04-19 14:43 53.09361 -0.16374 28 ft 16 kts 257°
2026-04-19 14:43 53.09280 -0.16829 74 ft 65 kts 262°
2026-04-19 14:44 53.09126 -0.17687 333 ft 90 kts 260°
2026-04-19 14:44 53.08879 -0.18690 638 ft 102 kts 224°
2026-04-19 14:44 53.08247 -0.18562 699 ft 103 kts 134°
2026-04-19 14:44 53.07843 -0.17491 589 ft 107 kts 114°
2026-04-19 14:45 53.07617 -0.16822 698 ft 93 kts 114°
2026-04-19 14:45 53.07403 -0.15815 606 ft 85 kts 79°
2026-04-19 14:45 53.07693 -0.15055 486 ft 76 kts 27°
2026-04-19 14:45 53.08181 -0.14904 383 ft 68 kts 345°
2026-04-19 14:46 53.08491 -0.15414 234 ft 63 kts 302°
2026-04-19 14:46 53.08671 -0.16076 100 ft 61 kts 302°
2026-04-19 14:46 53.08838 -0.16686 24 ft 47 kts 300°
2026-04-19 14:46 53.08922 -0.16996 23 ft 15 kts 288°
2026-04-19 14:47 53.08959 -0.17124 23 ft 11 kts 295°
2026-04-19 14:47 53.08998 -0.17259 23 ft 16 kts 292°
2026-04-19 14:47 53.09031 -0.17396 23 ft 12 kts 291°
2026-04-19 14:47 53.09063 -0.17516 23 ft 13 kts 293°
2026-04-19 14:48 53.09110 -0.17671 23 ft 16 kts 303°
2026-04-19 14:48 53.09151 -0.17847 23 ft 18 kts 293°
2026-04-19 14:48 53.09205 -0.18036 23 ft 15 kts 294°
2026-04-19 14:48 53.09251 -0.18201 23 ft 17 kts 296°
2026-04-19 14:49 53.09318 -0.18319 24 ft 13 kts
2026-04-19 14:49 53.09413 -0.18258 25 ft 16 kts 22°
2026-04-19 14:49 53.09518 -0.18176 26 ft 17 kts 27°
2026-04-19 14:49 53.09614 -0.18090 24 ft 14 kts 38°
2026-04-19 14:50 53.09609 -0.18070 24 ft 0 kts 264°